Beirne, AR (71721)

4:05 PM CST on January 30, 2015 (GMT -0600)
Gurdon, AR | Change Station
CLOSE
Current Station
Personal Weather Station
Location: Gurdon, AR
Elevation: 210 ft
Nearby Weather Stations

Elev 210 ft 33.92 °N, 93.15 °W | Updated 12 minutes ago

Clear
Clear
54.9 °F
Feels Like 54.9 °F
N
1.7
Wind Variable Wind from SW

Today
High -- | Low -- °F
--% Chance of Precip.
Yesterday
High -- | Low -- °F
Precip. -- in
7:11 AM 5:41 PM
Waxing Gibbous, 85% visible
Pressure 30.47 in
Visibility 10.0 miles
Clouds Clear
Dew Point 32 °F
Humidity 41%
Rainfall 0.00 in
Snow Depth Not available.
UV 1 out of 12
Pollen 5.20 out of 12
Air Quality Not available.
Flu Activity Not available.
METAR KADF 302156Z AUTO 00000KT 10SM CLR 12/M02 A3042 RMK AO2 T01161022 SLP318

More Conditions Fewer Conditions

Pressure 30.47 in
Visibility 10.0 miles
Clouds Clear
Dew Point 32 °F
Humidity 41%
Rainfall 0.00 in
Snow Depth Not available.
UV 1 out of 12
Pollen 5.20 out of 12
Air Quality Not available.
Flu Activity Not available.
METAR KADF 302156Z AUTO 00000KT 10SM CLR 12/M02 A3042 RMK AO2 T01161022 SLP318

More Conditions Fewer Conditions

10-Day Weather Forecast

Almanac

Astronomy

Jan. 30, 2015 Rise Set
Actual Time
Civil Twilight
Nautical Twilight
Astronomical Twilight
Moon
Length of Visible Light
Length of Day
Tomorrow will be .
, % of the Moon is Illuminated

Today's Extremes

State Highs State Lows

Community

WunderPhotos

Upload Photos

1,791,902 photos uploaded!

WunderBlogs® & News

Nearby

Air Quality

  Air Quality AQ Index Pollutant
Not available.

Snow Depth

Station Depth Elevation

Earthquake Activity

City Distance Mag. Time & Date
Minimum magnitude displayed is 2.5.

Coastal Water Temperatures

Place Temperature

Nearby Weather Stations